sensor_id;sensor_type;location;lat;lon;timestamp;P1;durP1;ratioP1;P2;durP2;ratioP2
27794;SDS011;15176;50.844;4.412;2023-04-25T00:01:31;21.17;;;3.70;;
27794;SDS011;15176;50.844;4.412;2023-04-25T00:04:01;19.50;;;4.18;;
27794;SDS011;15176;50.844;4.412;2023-04-25T00:06:27;16.80;;;4.28;;
27794;SDS011;15176;50.844;4.412;2023-04-25T00:08:53;15.90;;;3.45;;
27794;SDS011;15176;50.844;4.412;2023-04-25T00:11:20;17.85;;;3.78;;
27794;SDS011;15176;50.844;4.412;2023-04-25T00:13:46;18.55;;;3.30;;
27794;SDS011;15176;50.844;4.412;2023-04-25T00:16:13;17.25;;;3.47;;
27794;SDS011;15176;50.844;4.412;2023-04-25T00:18:41;20.35;;;3.90;;
27794;SDS011;15176;50.844;4.412;2023-04-25T00:21:07;14.77;;;3.92;;
27794;SDS011;15176;50.844;4.412;2023-04-25T00:23:33;29.58;;;3.97;;
27794;SDS011;15176;50.844;4.412;2023-04-25T00:26:00;17.17;;;3.80;;
27794;SDS011;15176;50.844;4.412;2023-04-25T00:28:26;16.95;;;3.55;;
27794;SDS011;15176;50.844;4.412;2023-04-25T00:30:53;22.45;;;4.20;;
27794;SDS011;15176;50.844;4.412;2023-04-25T00:33:19;21.45;;;3.70;;
27794;SDS011;15176;50.844;4.412;2023-04-25T00:35:44;18.40;;;3.83;;
27794;SDS011;15176;50.844;4.412;2023-04-25T00:38:10;18.33;;;4.15;;
27794;SDS011;15176;50.844;4.412;2023-04-25T00:40:36;13.05;;;3.15;;
27794;SDS011;15176;50.844;4.412;2023-04-25T00:43:02;17.27;;;3.65;;
27794;SDS011;15176;50.844;4.412;2023-04-25T00:45:28;11.25;;;2.85;;
27794;SDS011;15176;50.844;4.412;2023-04-25T00:47:55;21.73;;;4.10;;
27794;SDS011;15176;50.844;4.412;2023-04-25T00:50:21;17.85;;;3.83;;
27794;SDS011;15176;50.844;4.412;2023-04-25T00:52:47;18.65;;;3.85;;
27794;SDS011;15176;50.844;4.412;2023-04-25T00:55:13;19.20;;;4.07;;
27794;SDS011;15176;50.844;4.412;2023-04-25T00:57:40;17.17;;;3.95;;
27794;SDS011;15176;50.844;4.412;2023-04-25T01:00:07;17.35;;;4.30;;
27794;SDS011;15176;50.844;4.412;2023-04-25T01:02:35;20.63;;;4.57;;
27794;SDS011;15176;50.844;4.412;2023-04-25T01:05:01;19.10;;;3.72;;
27794;SDS011;15176;50.844;4.412;2023-04-25T01:07:28;22.50;;;4.40;;
27794;SDS011;15176;50.844;4.412;2023-04-25T01:09:53;16.50;;;4.00;;
27794;SDS011;15176;50.844;4.412;2023-04-25T01:12:20;22.02;;;4.55;;
27794;SDS011;15176;50.844;4.412;2023-04-25T01:14:46;18.73;;;4.50;;
27794;SDS011;15176;50.844;4.412;2023-04-25T01:17:12;20.00;;;4.60;;
27794;SDS011;15176;50.844;4.412;2023-04-25T01:19:37;26.70;;;4.22;;
27794;SDS011;15176;50.844;4.412;2023-04-25T01:22:04;26.67;;;4.55;;
27794;SDS011;15176;50.844;4.412;2023-04-25T01:24:31;17.98;;;4.18;;
27794;SDS011;15176;50.844;4.412;2023-04-25T01:26:59;13.85;;;3.75;;
27794;SDS011;15176;50.844;4.412;2023-04-25T01:29:26;18.30;;;4.18;;
27794;SDS011;15176;50.844;4.412;2023-04-25T01:31:53;20.30;;;4.43;;
27794;SDS011;15176;50.844;4.412;2023-04-25T01:34:19;14.77;;;4.45;;
27794;SDS011;15176;50.844;4.412;2023-04-25T01:36:46;24.33;;;4.82;;
27794;SDS011;15176;50.844;4.412;2023-04-25T01:39:15;20.63;;;4.72;;
27794;SDS011;15176;50.844;4.412;2023-04-25T01:41:41;23.90;;;4.93;;
27794;SDS011;15176;50.844;4.412;2023-04-25T01:44:06;17.95;;;4.60;;
27794;SDS011;15176;50.844;4.412;2023-04-25T01:46:35;24.38;;;4.95;;
27794;SDS011;15176;50.844;4.412;2023-04-25T01:49:01;20.60;;;4.50;;
27794;SDS011;15176;50.844;4.412;2023-04-25T01:51:27;23.70;;;4.45;;
27794;SDS011;15176;50.844;4.412;2023-04-25T01:53:53;23.65;;;4.45;;
27794;SDS011;15176;50.844;4.412;2023-04-25T01:56:20;18.48;;;3.55;;
27794;SDS011;15176;50.844;4.412;2023-04-25T01:58:45;23.95;;;4.75;;
27794;SDS011;15176;50.844;4.412;2023-04-25T02:01:11;21.02;;;4.35;;
27794;SDS011;15176;50.844;4.412;2023-04-25T02:03:37;20.98;;;4.88;;
27794;SDS011;15176;50.844;4.412;2023-04-25T02:06:03;18.35;;;3.97;;
27794;SDS011;15176;50.844;4.412;2023-04-25T02:08:29;15.40;;;3.75;;
27794;SDS011;15176;50.844;4.412;2023-04-25T02:10:55;19.75;;;4.50;;
27794;SDS011;15176;50.844;4.412;2023-04-25T02:13:20;17.40;;;4.40;;
27794;SDS011;15176;50.844;4.412;2023-04-25T02:15:47;19.88;;;4.30;;
27794;SDS011;15176;50.844;4.412;2023-04-25T02:18:13;18.02;;;4.38;;
27794;SDS011;15176;50.844;4.412;2023-04-25T02:20:41;20.17;;;4.40;;
27794;SDS011;15176;50.844;4.412;2023-04-25T02:23:07;18.60;;;4.30;;
27794;SDS011;15176;50.844;4.412;2023-04-25T02:25:33;20.25;;;4.47;;
27794;SDS011;15176;50.844;4.412;2023-04-25T02:27:58;21.92;;;4.75;;
27794;SDS011;15176;50.844;4.412;2023-04-25T02:30:24;21.83;;;5.13;;
27794;SDS011;15176;50.844;4.412;2023-04-25T02:32:50;17.48;;;4.43;;
27794;SDS011;15176;50.844;4.412;2023-04-25T02:35:15;21.48;;;4.47;;
27794;SDS011;15176;50.844;4.412;2023-04-25T02:37:41;20.88;;;4.57;;
27794;SDS011;15176;50.844;4.412;2023-04-25T02:40:09;20.85;;;5.00;;
27794;SDS011;15176;50.844;4.412;2023-04-25T02:42:35;16.77;;;4.50;;
27794;SDS011;15176;50.844;4.412;2023-04-25T02:45:00;17.23;;;4.50;;
27794;SDS011;15176;50.844;4.412;2023-04-25T02:47:27;20.67;;;4.60;;
27794;SDS011;15176;50.844;4.412;2023-04-25T02:49:53;23.65;;;5.20;;
27794;SDS011;15176;50.844;4.412;2023-04-25T02:52:18;20.08;;;4.88;;
27794;SDS011;15176;50.844;4.412;2023-04-25T02:54:44;18.95;;;4.50;;
27794;SDS011;15176;50.844;4.412;2023-04-25T02:57:10;19.40;;;4.43;;
27794;SDS011;15176;50.844;4.412;2023-04-25T02:59:36;17.48;;;5.28;;
27794;SDS011;15176;50.844;4.412;2023-04-25T03:02:01;22.30;;;5.00;;
27794;SDS011;15176;50.844;4.412;2023-04-25T03:04:27;18.27;;;4.95;;
27794;SDS011;15176;50.844;4.412;2023-04-25T03:06:53;19.45;;;4.90;;
27794;SDS011;15176;50.844;4.412;2023-04-25T03:09:18;25.02;;;4.85;;
27794;SDS011;15176;50.844;4.412;2023-04-25T03:11:45;19.88;;;4.93;;
27794;SDS011;15176;50.844;4.412;2023-04-25T03:14:11;17.30;;;4.68;;
27794;SDS011;15176;50.844;4.412;2023-04-25T03:16:37;19.15;;;4.53;;
27794;SDS011;15176;50.844;4.412;2023-04-25T03:19:03;21.83;;;4.90;;
27794;SDS011;15176;50.844;4.412;2023-04-25T03:21:30;26.90;;;4.70;;
27794;SDS011;15176;50.844;4.412;2023-04-25T03:23:57;19.48;;;4.55;;
27794;SDS011;15176;50.844;4.412;2023-04-25T03:26:23;20.70;;;5.03;;
27794;SDS011;15176;50.844;4.412;2023-04-25T03:28:49;25.65;;;5.68;;
27794;SDS011;15176;50.844;4.412;2023-04-25T03:31:15;23.50;;;4.72;;
27794;SDS011;15176;50.844;4.412;2023-04-25T03:33:40;20.05;;;4.25;;
27794;SDS011;15176;50.844;4.412;2023-04-25T03:36:06;26.58;;;4.35;;
27794;SDS011;15176;50.844;4.412;2023-04-25T03:38:32;19.05;;;3.72;;
27794;SDS011;15176;50.844;4.412;2023-04-25T03:40:58;24.75;;;4.47;;
27794;SDS011;15176;50.844;4.412;2023-04-25T03:43:23;25.95;;;4.47;;
27794;SDS011;15176;50.844;4.412;2023-04-25T03:45:49;15.70;;;3.83;;
27794;SDS011;15176;50.844;4.412;2023-04-25T03:48:15;23.48;;;4.50;;
27794;SDS011;15176;50.844;4.412;2023-04-25T03:50:41;20.35;;;4.50;;
27794;SDS011;15176;50.844;4.412;2023-04-25T03:53:07;24.00;;;4.15;;
27794;SDS011;15176;50.844;4.412;2023-04-25T03:55:32;21.85;;;4.18;;
27794;SDS011;15176;50.844;4.412;2023-04-25T03:57:58;18.85;;;4.40;;
27794;SDS011;15176;50.844;4.412;2023-04-25T04:00:25;24.73;;;4.13;;
27794;SDS011;15176;50.844;4.412;2023-04-25T04:02:52;16.75;;;4.53;;
27794;SDS011;15176;50.844;4.412;2023-04-25T04:05:18;20.80;;;4.28;;
27794;SDS011;15176;50.844;4.412;2023-04-25T04:07:44;23.20;;;4.43;;
27794;SDS011;15176;50.844;4.412;2023-04-25T04:10:10;14.65;;;4.65;;
27794;SDS011;15176;50.844;4.412;2023-04-25T04:12:36;21.63;;;5.00;;
27794;SDS011;15176;50.844;4.412;2023-04-25T04:15:03;18.88;;;5.32;;
27794;SDS011;15176;50.844;4.412;2023-04-25T04:17:29;22.25;;;4.95;;
27794;SDS011;15176;50.844;4.412;2023-04-25T04:19:55;24.23;;;5.55;;
27794;SDS011;15176;50.844;4.412;2023-04-25T04:22:21;20.95;;;4.55;;
27794;SDS011;15176;50.844;4.412;2023-04-25T04:24:47;21.15;;;4.40;;
27794;SDS011;15176;50.844;4.412;2023-04-25T04:27:15;20.00;;;4.50;;
27794;SDS011;15176;50.844;4.412;2023-04-25T04:29:44;16.55;;;4.30;;
27794;SDS011;15176;50.844;4.412;2023-04-25T04:32:12;15.90;;;4.07;;
27794;SDS011;15176;50.844;4.412;2023-04-25T04:34:39;19.52;;;4.85;;
27794;SDS011;15176;50.844;4.412;2023-04-25T04:37:06;12.85;;;3.88;;
27794;SDS011;15176;50.844;4.412;2023-04-25T04:39:32;19.05;;;4.45;;
27794;SDS011;15176;50.844;4.412;2023-04-25T04:41:58;18.27;;;4.35;;
27794;SDS011;15176;50.844;4.412;2023-04-25T04:44:26;17.40;;;4.20;;
27794;SDS011;15176;50.844;4.412;2023-04-25T04:46:53;14.32;;;4.03;;
27794;SDS011;15176;50.844;4.412;2023-04-25T04:49:19;15.48;;;4.25;;
27794;SDS011;15176;50.844;4.412;2023-04-25T04:51:45;16.25;;;4.45;;
27794;SDS011;15176;50.844;4.412;2023-04-25T04:54:12;18.00;;;4.82;;
27794;SDS011;15176;50.844;4.412;2023-04-25T04:56:38;18.35;;;5.00;;
27794;SDS011;15176;50.844;4.412;2023-04-25T04:59:03;16.80;;;4.82;;
27794;SDS011;15176;50.844;4.412;2023-04-25T05:01:29;18.08;;;5.28;;
27794;SDS011;15176;50.844;4.412;2023-04-25T05:03:55;18.80;;;4.85;;
27794;SDS011;15176;50.844;4.412;2023-04-25T05:06:25;16.67;;;4.43;;
27794;SDS011;15176;50.844;4.412;2023-04-25T05:08:52;16.13;;;4.00;;
27794;SDS011;15176;50.844;4.412;2023-04-25T05:11:18;15.25;;;4.18;;
27794;SDS011;15176;50.844;4.412;2023-04-25T05:13:44;26.63;;;7.78;;
27794;SDS011;15176;50.844;4.412;2023-04-25T05:16:10;26.77;;;5.00;;
27794;SDS011;15176;50.844;4.412;2023-04-25T05:18:36;20.10;;;5.68;;
27794;SDS011;15176;50.844;4.412;2023-04-25T05:21:02;19.45;;;6.03;;
27794;SDS011;15176;50.844;4.412;2023-04-25T05:23:28;18.15;;;5.75;;
27794;SDS011;15176;50.844;4.412;2023-04-25T05:25:55;19.25;;;5.82;;
27794;SDS011;15176;50.844;4.412;2023-04-25T05:28:21;12.30;;;5.00;;
27794;SDS011;15176;50.844;4.412;2023-04-25T05:30:48;14.50;;;4.65;;
27794;SDS011;15176;50.844;4.412;2023-04-25T05:33:14;16.65;;;3.85;;
27794;SDS011;15176;50.844;4.412;2023-04-25T05:35:40;13.60;;;4.35;;
27794;SDS011;15176;50.844;4.412;2023-04-25T05:38:09;16.67;;;3.70;;
27794;SDS011;15176;50.844;4.412;2023-04-25T05:40:35;14.52;;;3.95;;
27794;SDS011;15176;50.844;4.412;2023-04-25T05:43:01;15.40;;;3.38;;
27794;SDS011;15176;50.844;4.412;2023-04-25T05:45:27;13.10;;;3.50;;
27794;SDS011;15176;50.844;4.412;2023-04-25T05:47:52;16.05;;;3.38;;
27794;SDS011;15176;50.844;4.412;2023-04-25T05:50:18;16.80;;;3.40;;
27794;SDS011;15176;50.844;4.412;2023-04-25T05:52:44;14.82;;;4.00;;
27794;SDS011;15176;50.844;4.412;2023-04-25T05:55:09;17.20;;;4.10;;
27794;SDS011;15176;50.844;4.412;2023-04-25T05:57:35;21.30;;;4.25;;
27794;SDS011;15176;50.844;4.412;2023-04-25T06:00:01;17.20;;;3.40;;
27794;SDS011;15176;50.844;4.412;2023-04-25T06:02:27;13.93;;;3.67;;
27794;SDS011;15176;50.844;4.412;2023-04-25T06:04:52;20.02;;;4.68;;
27794;SDS011;15176;50.844;4.412;2023-04-25T06:07:19;18.10;;;4.47;;
27794;SDS011;15176;50.844;4.412;2023-04-25T06:09:47;19.95;;;4.38;;
27794;SDS011;15176;50.844;4.412;2023-04-25T06:12:13;19.63;;;4.65;;
27794;SDS011;15176;50.844;4.412;2023-04-25T06:14:39;25.48;;;4.63;;
27794;SDS011;15176;50.844;4.412;2023-04-25T06:17:05;17.98;;;4.65;;
27794;SDS011;15176;50.844;4.412;2023-04-25T06:19:33;22.15;;;4.80;;
27794;SDS011;15176;50.844;4.412;2023-04-25T06:22:00;15.18;;;4.60;;
27794;SDS011;15176;50.844;4.412;2023-04-25T06:24:26;21.90;;;5.07;;
27794;SDS011;15176;50.844;4.412;2023-04-25T06:26:52;20.90;;;5.32;;
27794;SDS011;15176;50.844;4.412;2023-04-25T06:29:19;22.63;;;5.38;;
27794;SDS011;15176;50.844;4.412;2023-04-25T06:31:46;28.58;;;5.22;;
27794;SDS011;15176;50.844;4.412;2023-04-25T06:34:12;23.70;;;6.85;;
27794;SDS011;15176;50.844;4.412;2023-04-25T06:36:37;19.85;;;5.70;;
27794;SDS011;15176;50.844;4.412;2023-04-25T06:39:04;18.75;;;5.70;;
27794;SDS011;15176;50.844;4.412;2023-04-25T06:41:31;19.52;;;6.40;;
27794;SDS011;15176;50.844;4.412;2023-04-25T06:43:57;19.52;;;6.20;;
27794;SDS011;15176;50.844;4.412;2023-04-25T06:46:23;23.90;;;6.35;;
27794;SDS011;15176;50.844;4.412;2023-04-25T06:48:48;16.98;;;5.68;;
27794;SDS011;15176;50.844;4.412;2023-04-25T06:51:15;16.88;;;5.70;;
27794;SDS011;15176;50.844;4.412;2023-04-25T06:53:40;22.48;;;5.57;;
27794;SDS011;15176;50.844;4.412;2023-04-25T06:56:06;18.50;;;4.88;;
27794;SDS011;15176;50.844;4.412;2023-04-25T06:58:35;20.20;;;4.53;;
27794;SDS011;15176;50.844;4.412;2023-04-25T07:01:01;15.80;;;3.70;;
27794;SDS011;15176;50.844;4.412;2023-04-25T07:03:26;15.07;;;3.83;;
27794;SDS011;15176;50.844;4.412;2023-04-25T07:05:54;16.25;;;4.03;;
27794;SDS011;15176;50.844;4.412;2023-04-25T07:08:20;11.02;;;3.53;;
27794;SDS011;15176;50.844;4.412;2023-04-25T07:10:46;11.98;;;2.88;;
27794;SDS011;15176;50.844;4.412;2023-04-25T07:13:12;17.80;;;3.28;;
27794;SDS011;15176;50.844;4.412;2023-04-25T07:15:41;19.65;;;3.70;;
27794;SDS011;15176;50.844;4.412;2023-04-25T07:18:07;21.27;;;3.75;;
27794;SDS011;15176;50.844;4.412;2023-04-25T07:20:32;11.50;;;3.35;;
27794;SDS011;15176;50.844;4.412;2023-04-25T07:22:58;19.05;;;3.47;;
27794;SDS011;15176;50.844;4.412;2023-04-25T07:25:24;13.60;;;3.47;;
27794;SDS011;15176;50.844;4.412;2023-04-25T07:27:50;16.27;;;3.55;;
27794;SDS011;15176;50.844;4.412;2023-04-25T07:30:15;15.20;;;3.78;;
27794;SDS011;15176;50.844;4.412;2023-04-25T07:32:41;13.63;;;3.22;;
27794;SDS011;15176;50.844;4.412;2023-04-25T07:35:07;17.60;;;4.38;;
27794;SDS011;15176;50.844;4.412;2023-04-25T07:37:33;16.75;;;3.25;;
27794;SDS011;15176;50.844;4.412;2023-04-25T07:39:59;17.58;;;3.08;;
27794;SDS011;15176;50.844;4.412;2023-04-25T07:42:25;14.57;;;3.38;;
27794;SDS011;15176;50.844;4.412;2023-04-25T07:44:51;13.70;;;2.88;;
27794;SDS011;15176;50.844;4.412;2023-04-25T07:47:16;16.80;;;3.25;;
27794;SDS011;15176;50.844;4.412;2023-04-25T07:49:44;16.23;;;2.97;;
27794;SDS011;15176;50.844;4.412;2023-04-25T07:52:10;13.80;;;3.17;;
27794;SDS011;15176;50.844;4.412;2023-04-25T07:54:36;15.68;;;2.85;;
27794;SDS011;15176;50.844;4.412;2023-04-25T07:57:02;18.70;;;3.10;;
27794;SDS011;15176;50.844;4.412;2023-04-25T07:59:28;14.85;;;3.00;;
27794;SDS011;15176;50.844;4.412;2023-04-25T08:01:55;12.98;;;3.05;;
27794;SDS011;15176;50.844;4.412;2023-04-25T08:04:22;14.60;;;3.30;;
27794;SDS011;15176;50.844;4.412;2023-04-25T08:06:50;11.27;;;3.15;;
27794;SDS011;15176;50.844;4.412;2023-04-25T08:09:22;18.50;;;3.00;;
27794;SDS011;15176;50.844;4.412;2023-04-25T08:11:48;12.45;;;3.30;;
27794;SDS011;15176;50.844;4.412;2023-04-25T08:14:17;13.05;;;3.63;;
27794;SDS011;15176;50.844;4.412;2023-04-25T08:16:46;11.45;;;3.03;;
27794;SDS011;15176;50.844;4.412;2023-04-25T08:19:12;13.18;;;2.85;;
27794;SDS011;15176;50.844;4.412;2023-04-25T08:21:38;9.13;;;2.85;;
27794;SDS011;15176;50.844;4.412;2023-04-25T08:24:03;14.02;;;2.67;;
27794;SDS011;15176;50.844;4.412;2023-04-25T08:26:29;13.02;;;2.95;;
27794;SDS011;15176;50.844;4.412;2023-04-25T08:28:55;13.20;;;2.80;;
27794;SDS011;15176;50.844;4.412;2023-04-25T08:31:21;13.88;;;2.90;;
27794;SDS011;15176;50.844;4.412;2023-04-25T08:33:46;15.55;;;3.22;;
27794;SDS011;15176;50.844;4.412;2023-04-25T08:36:12;21.30;;;3.47;;
27794;SDS011;15176;50.844;4.412;2023-04-25T08:38:38;10.25;;;2.97;;
27794;SDS011;15176;50.844;4.412;2023-04-25T08:41:03;11.38;;;3.03;;
27794;SDS011;15176;50.844;4.412;2023-04-25T08:43:33;13.13;;;2.78;;
27794;SDS011;15176;50.844;4.412;2023-04-25T08:46:00;18.63;;;3.42;;
27794;SDS011;15176;50.844;4.412;2023-04-25T08:48:29;19.50;;;7.57;;
27794;SDS011;15176;50.844;4.412;2023-04-25T08:50:58;9.80;;;2.17;;
27794;SDS011;15176;50.844;4.412;2023-04-25T08:53:28;14.95;;;2.97;;
27794;SDS011;15176;50.844;4.412;2023-04-25T08:55:56;12.00;;;2.67;;
27794;SDS011;15176;50.844;4.412;2023-04-25T08:58:24;14.90;;;3.20;;
27794;SDS011;15176;50.844;4.412;2023-04-25T09:00:51;9.63;;;2.80;;
27794;SDS011;15176;50.844;4.412;2023-04-25T09:03:17;12.00;;;2.67;;
27794;SDS011;15176;50.844;4.412;2023-04-25T09:05:46;14.95;;;2.70;;
27794;SDS011;15176;50.844;4.412;2023-04-25T09:08:11;10.13;;;2.50;;
27794;SDS011;15176;50.844;4.412;2023-04-25T09:10:40;7.28;;;2.28;;
27794;SDS011;15176;50.844;4.412;2023-04-25T09:13:06;11.02;;;2.47;;
27794;SDS011;15176;50.844;4.412;2023-04-25T09:15:46;19.80;;;5.53;;
27794;SDS011;15176;50.844;4.412;2023-04-25T09:18:13;13.00;;;2.60;;
27794;SDS011;15176;50.844;4.412;2023-04-25T09:21:08;6.45;;;1.90;;
27794;SDS011;15176;50.844;4.412;2023-04-25T09:23:39;17.60;;;6.93;;
27794;SDS011;15176;50.844;4.412;2023-04-25T09:26:07;11.20;;;3.40;;
27794;SDS011;15176;50.844;4.412;2023-04-25T09:28:33;8.43;;;2.15;;
27794;SDS011;15176;50.844;4.412;2023-04-25T09:31:00;11.80;;;2.58;;
27794;SDS011;15176;50.844;4.412;2023-04-25T09:33:30;10.95;;;2.35;;
27794;SDS011;15176;50.844;4.412;2023-04-25T09:36:04;10.18;;;2.40;;
27794;SDS011;15176;50.844;4.412;2023-04-25T09:38:32;8.88;;;2.33;;
27794;SDS011;15176;50.844;4.412;2023-04-25T09:41:07;16.40;;;2.25;;
27794;SDS011;15176;50.844;4.412;2023-04-25T09:43:34;9.57;;;2.45;;
27794;SDS011;15176;50.844;4.412;2023-04-25T09:46:00;8.07;;;2.25;;
27794;SDS011;15176;50.844;4.412;2023-04-25T09:48:27;11.93;;;2.67;;
27794;SDS011;15176;50.844;4.412;2023-04-25T09:53:33;12.85;;;2.40;;
27794;SDS011;15176;50.844;4.412;2023-04-25T09:55:59;13.32;;;2.45;;
27794;SDS011;15176;50.844;4.412;2023-04-25T09:58:28;13.57;;;3.33;;
27794;SDS011;15176;50.844;4.412;2023-04-25T10:00:59;7.20;;;1.88;;
27794;SDS011;15176;50.844;4.412;2023-04-25T10:03:28;12.20;;;4.07;;
27794;SDS011;15176;50.844;4.412;2023-04-25T10:05:57;9.77;;;2.50;;
27794;SDS011;15176;50.844;4.412;2023-04-25T10:08:25;9.10;;;2.63;;
27794;SDS011;15176;50.844;4.412;2023-04-25T10:10:57;10.65;;;2.13;;
27794;SDS011;15176;50.844;4.412;2023-04-25T10:13:31;11.57;;;2.20;;
27794;SDS011;15176;50.844;4.412;2023-04-25T10:16:06;9.45;;;2.13;;
27794;SDS011;15176;50.844;4.412;2023-04-25T10:18:33;12.25;;;1.80;;
27794;SDS011;15176;50.844;4.412;2023-04-25T10:21:02;8.05;;;1.80;;
27794;SDS011;15176;50.844;4.412;2023-04-25T10:23:29;6.03;;;1.70;;
27794;SDS011;15176;50.844;4.412;2023-04-25T10:25:56;6.10;;;1.80;;
27794;SDS011;15176;50.844;4.412;2023-04-25T10:28:35;5.80;;;1.45;;
27794;SDS011;15176;50.844;4.412;2023-04-25T10:31:26;6.22;;;1.50;;
27794;SDS011;15176;50.844;4.412;2023-04-25T10:33:54;7.38;;;1.65;;
27794;SDS011;15176;50.844;4.412;2023-04-25T10:36:20;6.22;;;1.50;;
27794;SDS011;15176;50.844;4.412;2023-04-25T10:38:48;8.55;;;1.70;;
27794;SDS011;15176;50.844;4.412;2023-04-25T10:41:19;7.72;;;1.45;;
27794;SDS011;15176;50.844;4.412;2023-04-25T10:43:58;8.90;;;1.90;;
27794;SDS011;15176;50.844;4.412;2023-04-25T10:46:28;7.32;;;1.25;;
27794;SDS011;15176;50.844;4.412;2023-04-25T10:48:58;7.68;;;1.60;;
27794;SDS011;15176;50.844;4.412;2023-04-25T10:51:25;6.80;;;1.92;;
27794;SDS011;15176;50.844;4.412;2023-04-25T10:58:46;7.80;;;1.90;;
27794;SDS011;15176;50.844;4.412;2023-04-25T11:01:15;6.95;;;1.60;;
27794;SDS011;15176;50.844;4.412;2023-04-25T11:03:44;8.32;;;1.73;;
27794;SDS011;15176;50.844;4.412;2023-04-25T11:06:55;7.80;;;1.77;;
27794;SDS011;15176;50.844;4.412;2023-04-25T11:09:09;10.73;;;2.00;;
27794;SDS011;15176;50.844;4.412;2023-04-25T11:11:38;7.43;;;1.35;;
27794;SDS011;15176;50.844;4.412;2023-04-25T11:14:04;9.10;;;1.55;;
27794;SDS011;15176;50.844;4.412;2023-04-25T11:16:29;8.52;;;1.80;;
27794;SDS011;15176;50.844;4.412;2023-04-25T11:18:56;8.30;;;1.73;;
27794;SDS011;15176;50.844;4.412;2023-04-25T11:21:23;11.38;;;1.70;;
27794;SDS011;15176;50.844;4.412;2023-04-25T11:23:53;7.55;;;1.48;;
27794;SDS011;15176;50.844;4.412;2023-04-25T11:26:20;8.93;;;1.90;;
27794;SDS011;15176;50.844;4.412;2023-04-25T11:28:49;10.38;;;1.92;;
27794;SDS011;15176;50.844;4.412;2023-04-25T11:31:15;7.57;;;1.92;;
27794;SDS011;15176;50.844;4.412;2023-04-25T11:33:41;8.90;;;1.73;;
27794;SDS011;15176;50.844;4.412;2023-04-25T11:36:07;5.80;;;1.42;;
27794;SDS011;15176;50.844;4.412;2023-04-25T11:38:34;6.70;;;1.80;;
27794;SDS011;15176;50.844;4.412;2023-04-25T11:41:00;6.22;;;1.67;;
27794;SDS011;15176;50.844;4.412;2023-04-25T11:43:25;6.32;;;1.60;;
27794;SDS011;15176;50.844;4.412;2023-04-25T11:45:51;9.05;;;2.33;;
27794;SDS011;15176;50.844;4.412;2023-04-25T11:48:18;6.78;;;1.83;;
27794;SDS011;15176;50.844;4.412;2023-04-25T11:50:44;8.43;;;1.50;;
27794;SDS011;15176;50.844;4.412;2023-04-25T11:53:10;11.25;;;1.90;;
27794;SDS011;15176;50.844;4.412;2023-04-25T11:55:36;7.85;;;1.40;;
27794;SDS011;15176;50.844;4.412;2023-04-25T11:58:02;9.38;;;1.60;;
27794;SDS011;15176;50.844;4.412;2023-04-25T12:00:29;4.72;;;1.20;;
27794;SDS011;15176;50.844;4.412;2023-04-25T12:02:56;8.05;;;1.85;;
27794;SDS011;15176;50.844;4.412;2023-04-25T12:05:28;7.63;;;1.48;;
27794;SDS011;15176;50.844;4.412;2023-04-25T12:08:19;5.10;;;1.33;;
27794;SDS011;15176;50.844;4.412;2023-04-25T12:10:46;8.77;;;1.33;;
27794;SDS011;15176;50.844;4.412;2023-04-25T12:13:20;7.10;;;1.30;;
27794;SDS011;15176;50.844;4.412;2023-04-25T12:15:46;24.83;;;8.90;;
27794;SDS011;15176;50.844;4.412;2023-04-25T12:18:12;8.55;;;2.30;;
27794;SDS011;15176;50.844;4.412;2023-04-25T12:20:38;6.28;;;1.52;;
27794;SDS011;15176;50.844;4.412;2023-04-25T12:23:07;7.07;;;1.70;;
27794;SDS011;15176;50.844;4.412;2023-04-25T12:25:44;10.85;;;1.70;;
27794;SDS011;15176;50.844;4.412;2023-04-25T12:28:14;5.53;;;1.27;;
27794;SDS011;15176;50.844;4.412;2023-04-25T12:33:32;9.73;;;1.40;;
27794;SDS011;15176;50.844;4.412;2023-04-25T12:35:59;4.93;;;1.15;;
27794;SDS011;15176;50.844;4.412;2023-04-25T12:38:29;6.20;;;1.35;;
27794;SDS011;15176;50.844;4.412;2023-04-25T12:40:57;2.60;;;1.13;;
27794;SDS011;15176;50.844;4.412;2023-04-25T12:43:23;3.50;;;1.05;;
27794;SDS011;15176;50.844;4.412;2023-04-25T12:45:53;4.75;;;1.05;;
27794;SDS011;15176;50.844;4.412;2023-04-25T12:48:20;6.13;;;1.20;;
27794;SDS011;15176;50.844;4.412;2023-04-25T12:50:46;4.65;;;1.15;;
27794;SDS011;15176;50.844;4.412;2023-04-25T12:53:20;6.15;;;1.25;;
27794;SDS011;15176;50.844;4.412;2023-04-25T12:55:49;6.95;;;1.30;;
27794;SDS011;15176;50.844;4.412;2023-04-25T12:58:16;4.13;;;0.93;;
27794;SDS011;15176;50.844;4.412;2023-04-25T13:00:46;5.60;;;1.10;;
27794;SDS011;15176;50.844;4.412;2023-04-25T13:03:11;6.28;;;1.50;;
27794;SDS011;15176;50.844;4.412;2023-04-25T13:05:37;6.32;;;1.50;;
27794;SDS011;15176;50.844;4.412;2023-04-25T13:08:03;6.47;;;1.73;;
27794;SDS011;15176;50.844;4.412;2023-04-25T13:10:30;9.98;;;1.98;;
27794;SDS011;15176;50.844;4.412;2023-04-25T13:12:58;9.63;;;1.80;;
27794;SDS011;15176;50.844;4.412;2023-04-25T13:15:24;10.07;;;1.60;;
27794;SDS011;15176;50.844;4.412;2023-04-25T13:17:51;9.65;;;1.40;;
27794;SDS011;15176;50.844;4.412;2023-04-25T13:20:16;4.47;;;1.17;;
27794;SDS011;15176;50.844;4.412;2023-04-25T13:22:43;8.55;;;1.90;;
27794;SDS011;15176;50.844;4.412;2023-04-25T13:25:14;6.90;;;2.95;;
27794;SDS011;15176;50.844;4.412;2023-04-25T13:27:40;9.55;;;2.63;;
27794;SDS011;15176;50.844;4.412;2023-04-25T13:30:06;7.35;;;2.38;;
27794;SDS011;15176;50.844;4.412;2023-04-25T13:32:36;10.13;;;1.67;;
27794;SDS011;15176;50.844;4.412;2023-04-25T13:35:04;6.57;;;1.30;;
27794;SDS011;15176;50.844;4.412;2023-04-25T13:37:35;5.15;;;1.27;;
27794;SDS011;15176;50.844;4.412;2023-04-25T13:40:02;4.68;;;1.30;;
27794;SDS011;15176;50.844;4.412;2023-04-25T13:42:31;10.15;;;1.63;;
27794;SDS011;15176;50.844;4.412;2023-04-25T13:44:57;7.72;;;1.42;;
27794;SDS011;15176;50.844;4.412;2023-04-25T13:47:23;6.10;;;1.10;;
27794;SDS011;15176;50.844;4.412;2023-04-25T13:49:49;4.60;;;1.60;;
27794;SDS011;15176;50.844;4.412;2023-04-25T13:52:15;4.88;;;1.33;;
27794;SDS011;15176;50.844;4.412;2023-04-25T13:54:41;8.93;;;2.03;;
27794;SDS011;15176;50.844;4.412;2023-04-25T13:57:06;6.43;;;1.63;;
27794;SDS011;15176;50.844;4.412;2023-04-25T13:59:32;7.60;;;1.60;;
27794;SDS011;15176;50.844;4.412;2023-04-25T14:01:59;10.30;;;1.75;;
27794;SDS011;15176;50.844;4.412;2023-04-25T14:04:27;11.55;;;1.70;;
27794;SDS011;15176;50.844;4.412;2023-04-25T14:06:52;6.75;;;1.52;;
27794;SDS011;15176;50.844;4.412;2023-04-25T14:09:18;8.38;;;1.60;;
27794;SDS011;15176;50.844;4.412;2023-04-25T14:11:47;7.80;;;1.60;;
27794;SDS011;15176;50.844;4.412;2023-04-25T14:14:13;10.27;;;1.63;;
27794;SDS011;15176;50.844;4.412;2023-04-25T14:16:41;6.57;;;1.60;;
27794;SDS011;15176;50.844;4.412;2023-04-25T14:19:06;6.43;;;1.80;;
27794;SDS011;15176;50.844;4.412;2023-04-25T14:21:32;19.88;;;9.82;;
27794;SDS011;15176;50.844;4.412;2023-04-25T14:23:58;6.95;;;1.67;;
27794;SDS011;15176;50.844;4.412;2023-04-25T14:26:24;6.30;;;1.55;;
27794;SDS011;15176;50.844;4.412;2023-04-25T14:28:50;10.63;;;1.20;;
27794;SDS011;15176;50.844;4.412;2023-04-25T14:31:17;6.00;;;0.95;;
27794;SDS011;15176;50.844;4.412;2023-04-25T14:33:42;4.88;;;1.10;;
27794;SDS011;15176;50.844;4.412;2023-04-25T14:36:11;11.43;;;1.17;;
27794;SDS011;15176;50.844;4.412;2023-04-25T14:38:37;8.95;;;1.30;;
27794;SDS011;15176;50.844;4.412;2023-04-25T14:41:03;6.82;;;1.38;;
27794;SDS011;15176;50.844;4.412;2023-04-25T14:43:32;5.80;;;1.40;;
27794;SDS011;15176;50.844;4.412;2023-04-25T14:45:58;7.55;;;1.77;;
27794;SDS011;15176;50.844;4.412;2023-04-25T14:48:24;5.25;;;1.20;;